createdAt,value
2019-03-31T00:02:17.578Z,67.92
2019-03-31T00:04:46.055Z,85.03
2019-03-31T00:07:14.508Z,91.53
2019-03-31T00:09:43.159Z,93.37
2019-03-31T00:12:11.636Z,88.63
2019-03-31T00:14:40.254Z,91.60
2019-03-31T00:17:08.791Z,90.85
2019-03-31T00:19:37.247Z,91.55
2019-03-31T00:22:05.783Z,88.90
2019-03-31T00:24:37.013Z,89.67
2019-03-31T00:27:05.594Z,86.25
2019-03-31T00:29:35.717Z,87.53
2019-03-31T00:32:06.271Z,80.90
2019-03-31T00:34:37.068Z,79.35
2019-03-31T00:37:07.657Z,73.20
2019-03-31T00:39:35.817Z,72.50
2019-03-31T00:42:07.101Z,72.15
2019-03-31T00:44:36.493Z,71.17
2019-03-31T00:47:08.368Z,65.83
2019-03-31T00:49:39.367Z,71.95
2019-03-31T00:52:07.828Z,71.77
2019-03-31T00:54:36.333Z,70.95
2019-03-31T00:57:07.844Z,72.37
2019-03-31T00:59:36.392Z,67.35
2019-03-31T01:02:06.770Z,68.80
2019-03-31T01:04:35.563Z,71.17
2019-03-31T01:07:06.254Z,65.52
2019-03-31T01:09:35.645Z,63.05
2019-03-31T01:12:05.855Z,67.12
2019-03-31T01:14:34.865Z,63.78
2019-03-31T01:17:03.864Z,65.45
2019-03-31T01:19:37.625Z,64.67
2019-03-31T01:22:07.446Z,62.60
2019-03-31T01:24:36.364Z,62.33
2019-03-31T01:27:08.335Z,64.30
2019-03-31T01:29:37.098Z,63.52
2019-03-31T01:32:07.590Z,59.30
2019-03-31T01:34:39.243Z,60.88
2019-03-31T01:37:10.563Z,62.13
2019-03-31T01:39:39.050Z,61.75
2019-03-31T01:42:07.601Z,61.40
2019-03-31T01:44:36.055Z,58.57
2019-03-31T01:47:05.518Z,62.88
2019-03-31T01:49:34.947Z,57.57
2019-03-31T01:52:04.912Z,60.33
2019-03-31T01:54:33.404Z,58.75
2019-03-31T01:57:01.859Z,56.45
2019-03-31T01:59:30.318Z,55.20
2019-03-31T02:02:04.462Z,55.88
2019-03-31T02:04:29.148Z,54.90
2019-03-31T02:06:57.700Z,55.63
2019-03-31T02:09:26.434Z,56.13
2019-03-31T02:11:58.262Z,64.35
2019-03-31T02:14:28.791Z,58.48
2019-03-31T02:16:57.289Z,55.43
2019-03-31T02:19:26.308Z,52.13
2019-03-31T02:21:54.930Z,52.17
2019-03-31T02:24:23.548Z,52.90
2019-03-31T02:26:52.029Z,50.12
2019-03-31T02:29:20.706Z,51.33
2019-03-31T02:31:50.545Z,49.42
2019-03-31T02:34:19.014Z,48.75
2019-03-31T02:36:47.509Z,45.88
2019-03-31T02:39:16.779Z,41.90
2019-03-31T02:41:45.318Z,44.00
2019-03-31T02:44:13.817Z,43.13
2019-03-31T02:46:42.298Z,44.08
2019-03-31T02:49:10.821Z,43.60
2019-03-31T02:51:39.927Z,42.50
2019-03-31T02:54:08.523Z,44.33
2019-03-31T02:56:38.001Z,43.95
2019-03-31T02:59:07.129Z,42.80
2019-03-31T03:01:35.957Z,42.78
2019-03-31T03:04:07.887Z,42.65
2019-03-31T03:06:36.463Z,41.95
2019-03-31T03:09:06.828Z,42.70
2019-03-31T03:11:36.155Z,44.75
2019-03-31T03:14:06.084Z,44.13
2019-03-31T03:16:35.318Z,43.87
2019-03-31T03:19:04.700Z,44.85
2019-03-31T03:21:33.320Z,44.20
2019-03-31T03:24:03.319Z,41.83
2019-03-31T03:26:36.554Z,42.30
2019-03-31T03:31:33.254Z,35.75
2019-03-31T03:34:02.389Z,37.40
2019-03-31T03:36:31.317Z,35.60
2019-03-31T03:39:00.633Z,36.80
2019-03-31T03:41:29.211Z,36.58
2019-03-31T03:44:02.136Z,37.28
2019-03-31T03:46:27.969Z,34.73
2019-03-31T03:48:56.531Z,34.78
2019-03-31T03:51:25.482Z,35.13
2019-03-31T03:53:57.970Z,34.90
2019-03-31T03:56:29.169Z,36.25
2019-03-31T03:58:57.995Z,32.53
2019-03-31T04:01:27.624Z,31.93
2019-03-31T04:03:56.146Z,30.55
2019-03-31T04:06:26.777Z,30.27
2019-03-31T04:08:55.373Z,30.85
2019-03-31T04:11:24.539Z,32.90
2019-03-31T04:13:53.923Z,31.93
2019-03-31T04:16:22.545Z,30.57
2019-03-31T04:18:51.141Z,29.42
2019-03-31T04:21:19.818Z,30.75
2019-03-31T04:23:48.428Z,27.95
2019-03-31T04:26:17.321Z,33.27
2019-03-31T04:28:45.945Z,29.05
2019-03-31T04:31:15.867Z,27.73
2019-03-31T04:33:51.713Z,27.17
2019-03-31T04:36:15.230Z,27.85
2019-03-31T04:38:43.665Z,25.10
2019-03-31T04:41:12.199Z,26.30
2019-03-31T04:43:41.493Z,25.02
2019-03-31T04:46:10.289Z,24.60
2019-03-31T04:48:39.419Z,25.25
2019-03-31T04:51:07.968Z,25.75
2019-03-31T04:53:36.431Z,25.72
2019-03-31T04:56:05.027Z,23.98
2019-03-31T04:58:34.560Z,24.05
2019-03-31T05:01:05.058Z,25.05
2019-03-31T05:03:34.654Z,23.07
2019-03-31T05:06:05.337Z,23.85
2019-03-31T05:08:35.107Z,22.77
2019-03-31T05:11:08.709Z,22.02
2019-03-31T05:13:37.166Z,21.07
2019-03-31T05:16:06.714Z,22.37
2019-03-31T05:18:35.584Z,22.40
2019-03-31T05:21:10.100Z,21.75
2019-03-31T05:23:40.341Z,20.60
2019-03-31T05:26:08.798Z,21.02
2019-03-31T05:28:38.391Z,20.40
2019-03-31T05:31:11.738Z,19.87
2019-03-31T05:33:40.215Z,20.90
2019-03-31T05:36:11.927Z,19.98
2019-03-31T05:38:41.354Z,20.48
2019-03-31T05:41:09.928Z,20.08
2019-03-31T05:43:38.413Z,20.65
2019-03-31T05:46:06.858Z,22.05
2019-03-31T05:48:35.478Z,20.52
2019-03-31T05:51:05.301Z,20.32
2019-03-31T05:53:33.772Z,21.15
2019-03-31T05:56:02.371Z,20.35
2019-03-31T05:58:31.532Z,19.17
2019-03-31T06:01:01.480Z,19.73
2019-03-31T06:03:33.853Z,19.42
2019-03-31T06:06:02.319Z,19.25
2019-03-31T06:08:37.279Z,19.87
2019-03-31T06:11:05.938Z,18.80
2019-03-31T06:13:37.521Z,18.30
2019-03-31T06:16:06.137Z,18.65
2019-03-31T06:18:34.693Z,17.55
2019-03-31T06:21:03.560Z,17.42
2019-03-31T06:23:32.091Z,17.40
2019-03-31T06:26:00.576Z,17.77
2019-03-31T06:28:29.911Z,18.37
2019-03-31T06:30:59.796Z,17.67
2019-03-31T06:33:28.347Z,16.23
2019-03-31T06:35:56.805Z,16.42
2019-03-31T06:38:25.251Z,15.98
2019-03-31T06:41:01.320Z,15.68
2019-03-31T06:43:29.839Z,17.65
2019-03-31T06:45:58.321Z,16.50
2019-03-31T06:48:29.309Z,16.80
2019-03-31T06:50:59.521Z,16.17
2019-03-31T06:53:29.209Z,15.98
2019-03-31T06:56:05.486Z,16.75
2019-03-31T06:58:30.774Z,16.97
2019-03-31T07:01:01.305Z,15.58
2019-03-31T07:03:29.874Z,15.58
2019-03-31T07:05:58.488Z,15.05
2019-03-31T07:08:27.064Z,16.50
2019-03-31T07:10:57.520Z,15.85
2019-03-31T07:13:27.545Z,16.07
2019-03-31T07:15:56.075Z,16.42
2019-03-31T07:18:24.651Z,15.10
2019-03-31T07:20:53.451Z,15.80
2019-03-31T07:23:21.992Z,15.95
2019-03-31T07:25:50.635Z,15.45
2019-03-31T07:28:19.194Z,15.90
2019-03-31T07:30:49.352Z,15.53
2019-03-31T07:33:17.893Z,13.83
2019-03-31T07:35:46.482Z,12.75
2019-03-31T07:38:14.997Z,12.00
2019-03-31T07:40:45.893Z,11.38
2019-03-31T07:43:14.720Z,9.30
2019-03-31T07:45:43.533Z,8.25
2019-03-31T07:48:12.129Z,6.78
2019-03-31T07:50:43.472Z,5.92
2019-03-31T07:53:11.982Z,5.12
2019-03-31T07:55:40.456Z,4.60
2019-03-31T07:58:08.927Z,4.75
2019-03-31T08:00:37.589Z,4.47
2019-03-31T08:03:07.606Z,3.98
2019-03-31T08:05:38.584Z,3.70
2019-03-31T08:08:07.147Z,3.55
2019-03-31T08:10:35.623Z,3.62
2019-03-31T08:13:07.838Z,3.60
2019-03-31T08:15:40.523Z,2.80
2019-03-31T08:18:11.778Z,3.47
2019-03-31T08:20:44.178Z,3.02
2019-03-31T08:23:12.636Z,3.08
2019-03-31T08:25:43.638Z,2.95
2019-03-31T08:28:12.123Z,2.60
2019-03-31T08:30:42.136Z,2.77
2019-03-31T08:33:11.112Z,2.42
2019-03-31T08:35:47.203Z,2.77
2019-03-31T08:38:10.444Z,3.58
2019-03-31T08:40:39.067Z,2.92
2019-03-31T08:43:09.854Z,3.02
2019-03-31T08:45:38.085Z,2.55
2019-03-31T08:48:06.560Z,2.58
2019-03-31T08:50:36.233Z,3.05
2019-03-31T08:53:07.054Z,2.40
2019-03-31T08:55:35.587Z,2.58
2019-03-31T08:58:05.724Z,2.70
2019-03-31T09:00:53.671Z,2.50
2019-03-31T09:03:22.207Z,2.40
2019-03-31T09:06:01.842Z,2.92
2019-03-31T09:08:22.672Z,2.63
2019-03-31T09:10:51.154Z,2.67
2019-03-31T09:13:21.221Z,2.30
2019-03-31T09:15:49.984Z,2.00
2019-03-31T09:18:18.548Z,2.12
2019-03-31T09:20:48.072Z,2.52
2019-03-31T09:23:16.680Z,2.52
2019-03-31T09:25:47.663Z,2.62
2019-03-31T09:28:16.875Z,2.55
2019-03-31T09:30:50.745Z,2.75
2019-03-31T09:33:20.871Z,2.10
2019-03-31T09:35:49.351Z,2.85
2019-03-31T09:38:17.991Z,2.12
2019-03-31T09:40:46.695Z,2.90
2019-03-31T09:43:15.221Z,2.58
2019-03-31T09:45:45.225Z,2.60
2019-03-31T09:48:13.790Z,2.77
2019-03-31T09:50:42.449Z,2.30
2019-03-31T09:53:11.031Z,2.80
2019-03-31T09:55:39.685Z,2.58
2019-03-31T09:58:08.179Z,2.77
2019-03-31T10:00:50.222Z,2.90
2019-03-31T10:03:20.065Z,3.30
2019-03-31T10:05:48.764Z,2.67
2019-03-31T10:08:21.538Z,2.62
2019-03-31T10:10:48.445Z,3.25
2019-03-31T10:13:16.994Z,2.72
2019-03-31T10:15:45.574Z,2.87
2019-03-31T10:18:14.138Z,2.90
2019-03-31T10:20:47.919Z,2.62
2019-03-31T10:23:16.969Z,2.80
2019-03-31T10:25:47.034Z,2.33
2019-03-31T10:28:15.653Z,3.42
2019-03-31T10:30:44.942Z,3.27
2019-03-31T10:33:14.169Z,3.10
2019-03-31T10:35:42.634Z,2.22
2019-03-31T10:38:11.278Z,2.37
2019-03-31T10:40:45.235Z,2.62
2019-03-31T10:43:13.878Z,2.83
2019-03-31T10:45:42.604Z,2.08
2019-03-31T10:48:20.196Z,3.17
2019-03-31T10:50:41.378Z,2.20
2019-03-31T10:53:10.156Z,1.60
2019-03-31T10:55:38.876Z,1.98
2019-03-31T10:58:07.369Z,2.08
2019-03-31T11:00:37.721Z,2.35
2019-03-31T11:03:07.503Z,2.50
2019-03-31T11:05:37.643Z,2.33
2019-03-31T11:08:06.421Z,2.60
2019-03-31T11:10:35.336Z,2.20
2019-03-31T11:13:06.052Z,2.35
2019-03-31T11:15:37.899Z,2.50
2019-03-31T11:18:07.327Z,4.95
2019-03-31T11:20:35.784Z,2.52
2019-03-31T11:23:06.327Z,2.30
2019-03-31T11:25:37.803Z,2.00
2019-03-31T11:28:06.276Z,2.33
2019-03-31T11:30:35.076Z,1.90
2019-03-31T11:33:07.169Z,2.25
2019-03-31T11:35:33.773Z,2.00
2019-03-31T11:38:02.316Z,1.92
2019-03-31T11:40:31.046Z,2.47
2019-03-31T11:42:59.607Z,2.10
2019-03-31T11:45:32.637Z,1.50
2019-03-31T11:48:01.154Z,2.00
2019-03-31T11:50:29.723Z,2.77
2019-03-31T11:52:58.189Z,2.25
2019-03-31T11:55:26.921Z,2.70
2019-03-31T11:57:55.477Z,2.05
2019-03-31T12:00:26.896Z,2.10
2019-03-31T12:02:57.628Z,2.45
2019-03-31T12:05:26.331Z,2.20
2019-03-31T12:07:54.807Z,1.57
2019-03-31T12:10:28.496Z,1.50
2019-03-31T12:12:58.224Z,2.77
2019-03-31T12:15:26.874Z,2.05
2019-03-31T12:17:55.496Z,1.80
2019-03-31T12:20:24.140Z,2.05
2019-03-31T12:22:52.824Z,2.12
2019-03-31T12:25:21.540Z,2.10
2019-03-31T12:27:50.140Z,2.00
2019-03-31T12:30:22.112Z,1.70
2019-03-31T12:32:51.531Z,1.90
2019-03-31T12:35:20.145Z,1.67
2019-03-31T12:37:50.011Z,2.02
2019-03-31T12:40:38.253Z,2.00
2019-03-31T12:43:06.899Z,1.60
2019-03-31T12:45:38.489Z,1.75
2019-03-31T12:48:08.745Z,1.67
2019-03-31T12:50:40.163Z,1.62
2019-03-31T12:53:08.686Z,1.70
2019-03-31T12:55:37.514Z,1.85
2019-03-31T12:58:06.137Z,1.80
2019-03-31T13:00:34.863Z,1.45
2019-03-31T13:03:06.095Z,2.37
2019-03-31T13:05:34.682Z,2.95
2019-03-31T13:08:03.151Z,1.75
2019-03-31T13:10:31.686Z,2.20
2019-03-31T13:13:00.246Z,1.92
2019-03-31T13:15:28.745Z,2.33
2019-03-31T13:17:57.287Z,1.80
2019-03-31T13:20:26.026Z,1.98
2019-03-31T13:22:54.496Z,2.80
2019-03-31T13:25:23.036Z,2.37
2019-03-31T13:27:51.516Z,2.42
2019-03-31T13:30:22.057Z,1.70
2019-03-31T13:32:50.534Z,2.15
2019-03-31T13:35:19.284Z,2.07
2019-03-31T13:37:47.806Z,2.20
2019-03-31T13:40:18.760Z,1.70
2019-03-31T13:42:47.115Z,2.12
2019-03-31T13:45:19.989Z,2.60
2019-03-31T13:47:48.619Z,2.20
2019-03-31T13:50:18.839Z,1.80
2019-03-31T13:52:47.383Z,2.17
2019-03-31T13:55:15.896Z,1.63
2019-03-31T13:57:45.697Z,2.10
2019-03-31T14:00:25.259Z,1.67
2019-03-31T14:02:48.339Z,1.75
2019-03-31T14:05:16.929Z,1.95
2019-03-31T14:07:45.457Z,1.87
2019-03-31T14:10:14.103Z,2.07
2019-03-31T14:12:43.705Z,2.37
2019-03-31T14:15:18.997Z,2.15
2019-03-31T14:17:49.865Z,2.10
2019-03-31T14:20:30.100Z,2.22
2019-03-31T14:22:58.742Z,2.07
2019-03-31T14:25:27.319Z,2.05
2019-03-31T14:27:55.887Z,2.35
2019-03-31T14:30:24.762Z,2.17
2019-03-31T14:32:53.371Z,2.02
2019-03-31T14:35:21.889Z,1.97
2019-03-31T14:37:50.482Z,1.95
2019-03-31T14:40:19.049Z,2.33
2019-03-31T14:42:48.188Z,2.00
2019-03-31T14:45:22.445Z,1.90
2019-03-31T14:47:50.918Z,2.10
2019-03-31T14:50:26.124Z,1.80
2019-03-31T14:52:54.988Z,1.98
2019-03-31T14:55:23.522Z,1.77
2019-03-31T14:57:52.079Z,1.72
2019-03-31T15:00:22.230Z,1.57
2019-03-31T15:02:50.825Z,1.57
2019-03-31T15:05:19.428Z,2.35
2019-03-31T15:07:51.688Z,1.23
2019-03-31T15:10:20.499Z,1.65
2019-03-31T15:12:49.317Z,1.47
2019-03-31T15:15:17.937Z,1.90
2019-03-31T15:17:47.083Z,1.70
2019-03-31T15:20:15.874Z,1.15
2019-03-31T15:22:44.411Z,1.70
2019-03-31T15:25:13.192Z,1.57
2019-03-31T15:27:41.701Z,1.60
2019-03-31T15:30:11.022Z,1.60
2019-03-31T15:32:41.151Z,1.65
2019-03-31T15:35:09.637Z,1.65
2019-03-31T15:37:38.591Z,1.37
2019-03-31T15:40:07.266Z,1.40
2019-03-31T15:42:36.025Z,20.85
2019-03-31T15:45:06.404Z,4.20
2019-03-31T15:47:35.451Z,3.25
2019-03-31T15:50:05.942Z,1.75
2019-03-31T15:52:36.731Z,1.67
2019-03-31T15:55:08.553Z,1.50
2019-03-31T15:57:40.416Z,1.75
2019-03-31T16:00:10.378Z,2.00
2019-03-31T16:02:39.119Z,1.50
2019-03-31T16:05:12.995Z,1.92
2019-03-31T16:07:43.654Z,1.45
2019-03-31T16:10:18.860Z,1.75
2019-03-31T16:12:47.320Z,1.60
2019-03-31T16:15:17.137Z,2.02
2019-03-31T16:17:45.801Z,1.50
2019-03-31T16:20:14.975Z,1.40
2019-03-31T16:22:43.528Z,1.40
2019-03-31T16:25:13.759Z,1.27
2019-03-31T16:27:42.220Z,1.57
2019-03-31T16:30:11.152Z,1.37
2019-03-31T16:32:39.614Z,1.62
2019-03-31T16:35:09.698Z,1.60
2019-03-31T16:37:39.863Z,1.25
2019-03-31T16:40:08.746Z,1.30
2019-03-31T16:42:37.202Z,1.40
2019-03-31T16:45:08.414Z,1.15
2019-03-31T16:47:36.961Z,1.60
2019-03-31T16:50:07.244Z,1.32
2019-03-31T16:52:35.821Z,1.50
2019-03-31T16:55:06.050Z,2.12
2019-03-31T16:57:35.569Z,1.37
2019-03-31T17:00:06.878Z,1.40
2019-03-31T17:02:35.507Z,1.32
2019-03-31T17:05:21.227Z,1.70
2019-03-31T17:07:38.701Z,1.77
2019-03-31T17:10:09.305Z,1.65
2019-03-31T17:12:37.995Z,1.80
2019-03-31T17:15:08.287Z,1.50
2019-03-31T17:17:44.093Z,1.20
2019-03-31T17:20:13.575Z,1.98
2019-03-31T17:22:42.060Z,2.15
2019-03-31T17:25:10.745Z,2.22
2019-03-31T17:27:39.204Z,1.95
2019-03-31T17:30:08.905Z,1.85
2019-03-31T17:32:38.764Z,2.12
2019-03-31T17:35:07.979Z,2.10
2019-03-31T17:37:36.465Z,1.92
2019-03-31T17:40:07.372Z,1.77
2019-03-31T17:42:35.977Z,1.40
2019-03-31T17:45:08.553Z,1.72
2019-03-31T17:47:38.521Z,1.77
2019-03-31T17:50:09.215Z,2.70
2019-03-31T17:52:37.685Z,2.00
2019-03-31T17:55:06.652Z,2.05
2019-03-31T17:57:35.352Z,1.80
2019-03-31T18:00:07.044Z,1.80
2019-03-31T18:02:35.680Z,1.70
2019-03-31T18:05:08.096Z,1.85
2019-03-31T18:07:36.659Z,2.37
2019-03-31T18:10:21.111Z,1.98
2019-03-31T18:12:45.698Z,2.37
2019-03-31T18:15:14.537Z,1.98
2019-03-31T18:17:43.360Z,1.92
2019-03-31T18:20:11.960Z,1.60
2019-03-31T18:22:40.484Z,1.95
2019-03-31T18:25:10.523Z,1.87
2019-03-31T18:27:39.811Z,1.85
2019-03-31T18:30:09.284Z,2.10
2019-03-31T18:32:38.039Z,2.27
2019-03-31T18:35:07.924Z,2.42
2019-03-31T18:37:36.627Z,2.33
2019-03-31T18:40:10.475Z,1.70
2019-03-31T18:42:39.623Z,1.67
2019-03-31T18:45:08.195Z,2.30
2019-03-31T18:47:36.734Z,2.22
2019-03-31T18:50:09.011Z,1.95
2019-03-31T18:52:37.485Z,2.17
2019-03-31T18:55:11.510Z,2.35
2019-03-31T18:57:51.536Z,2.33
2019-03-31T19:00:34.109Z,2.30
2019-03-31T19:03:04.280Z,1.60
2019-03-31T19:05:34.469Z,1.95
2019-03-31T19:08:04.624Z,1.95
2019-03-31T19:10:51.337Z,2.27
2019-03-31T19:13:32.031Z,2.25
2019-03-31T19:16:05.044Z,2.10
2019-03-31T19:18:53.256Z,2.33
2019-03-31T19:21:28.415Z,2.27
2019-03-31T19:23:58.607Z,2.52
2019-03-31T19:26:48.243Z,2.02
2019-03-31T19:29:28.512Z,2.13
2019-03-31T19:31:58.816Z,2.33
2019-03-31T19:34:29.682Z,2.70
2019-03-31T19:37:05.692Z,2.92
2019-03-31T19:39:35.851Z,2.30
2019-03-31T19:42:22.450Z,2.60
2019-03-31T19:44:52.750Z,2.35
2019-03-31T19:47:25.900Z,2.42
2019-03-31T19:50:01.996Z,2.03
2019-03-31T19:52:48.291Z,2.17
2019-03-31T19:55:33.026Z,2.52
2019-03-31T19:58:22.369Z,2.90
2019-03-31T20:00:58.560Z,2.72
2019-03-31T20:03:44.714Z,2.25
2019-03-31T20:06:14.971Z,2.55
2019-03-31T20:08:45.089Z,2.80
2019-03-31T20:11:15.286Z,2.60
2019-03-31T20:13:51.248Z,2.95
2019-03-31T20:16:24.015Z,2.50
2019-03-31T20:19:00.451Z,2.52
2019-03-31T20:21:32.355Z,2.70
2019-03-31T20:24:05.667Z,2.37
2019-03-31T20:29:19.774Z,2.27
2019-03-31T20:31:59.217Z,2.98
2019-03-31T20:34:32.064Z,2.72
2019-03-31T20:37:20.721Z,2.58
2019-03-31T20:39:59.776Z,2.98
2019-03-31T20:42:46.333Z,2.80
2019-03-31T20:45:14.803Z,2.50
2019-03-31T20:47:43.332Z,2.65
2019-03-31T20:50:13.849Z,2.50
2019-03-31T20:52:42.295Z,2.60
2019-03-31T20:55:16.564Z,2.93
2019-03-31T20:57:41.412Z,2.83
2019-03-31T21:00:10.433Z,2.70
2019-03-31T21:02:38.947Z,2.62
2019-03-31T21:05:08.874Z,2.55
2019-03-31T21:07:37.341Z,2.67
2019-03-31T21:10:07.791Z,3.40
2019-03-31T21:12:36.364Z,3.17
2019-03-31T21:15:06.975Z,2.77
2019-03-31T21:17:35.421Z,3.17
2019-03-31T21:20:07.226Z,2.65
2019-03-31T21:22:35.679Z,2.55
2019-03-31T21:25:06.346Z,2.80
2019-03-31T21:27:34.874Z,2.50
2019-03-31T21:30:04.400Z,2.55
2019-03-31T21:32:32.878Z,2.45
2019-03-31T21:35:01.395Z,2.25
2019-03-31T21:37:29.918Z,2.75
2019-03-31T21:39:58.449Z,2.37
2019-03-31T21:42:27.061Z,2.92
2019-03-31T21:44:55.558Z,2.40
2019-03-31T21:47:24.219Z,2.22
2019-03-31T21:49:52.726Z,2.45
2019-03-31T21:52:21.423Z,2.12
2019-03-31T21:54:50.937Z,2.33
2019-03-31T21:57:19.426Z,2.00
2019-03-31T21:59:48.200Z,2.40
2019-03-31T22:02:17.015Z,1.57
2019-03-31T22:04:46.969Z,2.20
2019-03-31T22:07:16.984Z,2.12
2019-03-31T22:09:45.468Z,1.80
2019-03-31T22:12:13.907Z,1.98
2019-03-31T22:14:53.144Z,1.75
2019-03-31T22:17:21.618Z,2.10
2019-03-31T22:19:52.155Z,1.95
2019-03-31T22:22:20.629Z,1.70
2019-03-31T22:24:49.116Z,1.75
2019-03-31T22:27:17.583Z,1.98
2019-03-31T22:29:46.101Z,2.02
2019-03-31T22:32:14.711Z,1.82
2019-03-31T22:34:43.204Z,2.20
2019-03-31T22:37:13.772Z,1.70
2019-03-31T22:39:42.257Z,1.85
2019-03-31T22:42:12.136Z,1.67
2019-03-31T22:44:41.979Z,1.75
2019-03-31T22:47:10.426Z,1.40
2019-03-31T22:49:39.043Z,2.08
2019-03-31T22:52:07.807Z,1.80
2019-03-31T22:54:37.837Z,1.62
2019-03-31T22:57:06.303Z,1.92
2019-03-31T22:59:34.763Z,2.07
2019-03-31T23:02:05.681Z,1.77
2019-03-31T23:04:36.515Z,1.90
2019-03-31T23:07:04.974Z,1.67
2019-03-31T23:09:34.495Z,2.08
2019-03-31T23:12:03.188Z,2.35
2019-03-31T23:14:31.633Z,1.82
2019-03-31T23:17:02.244Z,2.10
2019-03-31T23:19:32.132Z,1.65
2019-03-31T23:22:01.338Z,1.95
2019-03-31T23:24:29.806Z,1.98
2019-03-31T23:26:58.275Z,1.75
2019-03-31T23:29:26.742Z,1.45
2019-03-31T23:31:55.328Z,1.60
2019-03-31T23:34:23.796Z,1.82
2019-03-31T23:36:52.284Z,1.87
2019-03-31T23:39:20.796Z,1.40
2019-03-31T23:41:49.523Z,2.12
2019-03-31T23:44:17.996Z,1.60
2019-03-31T23:46:46.491Z,1.72
2019-03-31T23:49:14.963Z,1.95
2019-03-31T23:51:45.314Z,1.50
2019-03-31T23:54:13.927Z,1.50
2019-03-31T23:56:42.450Z,1.60
2019-03-31T23:59:10.926Z,1.42
